CheckWX is a tool to help pilots better visualize weather data.  It is not intended as a substitute for an official pre-flight weather briefing.

20:49:50 UTC

CWUW METAR
Dewar Lakes Airport
Canada
Current

50 mins ago

CWUW 262000Z AUTO 29003KT ////SM OVC011 M17/M22 A2945
Observed
Mar-26 @ 20:00 UTC
Wind
  • 290° at 3 KTS
Visibility
Cloud Levels
  • Overcast at 1,100' AGL
Temperature
-17°C / 1°F
Dewpoint
-22°C / -8°F
Humidity
65%
Altimeter
29.45" Hg
Pressure
997.32 hPa
Previous

2 hours ago

CWUW 261900Z AUTO 31004KT ////SM NCD M17/M23 A2944
Observed
Mar-26 @ 19:00 UTC
Wind
  • 310° at 4 KTS
Visibility
Cloud Levels
  • Clear skies
Temperature
-17°C / 1°F
Dewpoint
-23°C / -9°F
Humidity
60%
Altimeter
29.44" Hg
Pressure
996.92 hPa
Previous

3 hours ago

CWUW 261800Z AUTO 30003KT ////SM NCD M16/M23 A2944
Observed
Mar-26 @ 18:00 UTC
Wind
  • 300° at 3 KTS
Visibility
Cloud Levels
  • Clear skies
Temperature
-16°C / 3°F
Dewpoint
-23°C / -9°F
Humidity
55%
Altimeter
29.44" Hg
Pressure
996.92 hPa